LKKU METAR and TAF | Updated Today

LKKU METAR

Kunovice Airport

Observation time: 58 min. ago

LKKU 060700Z 34005KT 5000 BR FEW010 OVC016 02/01 Q1009

Need help? Read our tutorial on how to read METARs or read the parsed version below.

Kunovice Airport (LKKU) METAR

  • Weather conditions on Mon, 06 Dec 2021 07:00:00 +0000 (58 min. ago):
  • Present conditions: Mist
  • Clouds: A few at 305 meters; overcast sky at 488 meters
  • Visibility: 5000 meters
  • Wind: 340 degrees at 5 knots
  • Temperature: 2 celsius
  • Dew point: 1 celsius
  • Pressure: 1009 millibars
  • Remarks: None


Useful to know...